createdAt,value
2023-01-08T00:00:18.328Z,15.19
2023-01-08T00:01:22.395Z,16.40
2023-01-08T00:02:27.919Z,17.73
2023-01-08T00:03:31.992Z,15.13
2023-01-08T00:06:05.164Z,17.19
2023-01-08T00:07:14.166Z,18.31
2023-01-08T00:08:17.570Z,15.00
2023-01-08T00:09:22.917Z,19.07
2023-01-08T00:10:28.556Z,13.75
2023-01-08T00:11:34.897Z,16.19
2023-01-08T00:12:38.884Z,17.37
2023-01-08T00:13:45.149Z,16.50
2023-01-08T00:14:48.879Z,16.81
2023-01-08T00:15:55.407Z,15.13
2023-01-08T00:16:59.616Z,17.31
2023-01-08T00:18:06.652Z,17.12
2023-01-08T00:19:11.339Z,16.00
2023-01-08T00:20:16.121Z,16.81
2023-01-08T00:21:22.339Z,16.13
2023-01-08T00:22:26.009Z,16.62
2023-01-08T00:23:33.252Z,16.62
2023-01-08T00:24:38.738Z,15.50
2023-01-08T00:25:42.753Z,16.87
2023-01-08T00:26:51.164Z,15.94
2023-01-08T00:27:56.758Z,16.62
2023-01-08T00:29:00.693Z,16.33
2023-01-08T00:30:06.449Z,16.60
2023-01-08T00:31:14.844Z,16.69
2023-01-08T00:32:26.332Z,16.19
2023-01-08T00:34:18.388Z,14.93
2023-01-08T00:35:10.056Z,16.06
2023-01-08T00:35:46.537Z,17.00
2023-01-08T00:36:52.207Z,16.20
2023-01-08T00:37:57.387Z,18.20
2023-01-08T00:39:04.683Z,16.07
2023-01-08T00:40:09.562Z,18.06
2023-01-08T00:41:18.626Z,15.33
2023-01-08T00:42:21.580Z,16.60
2023-01-08T00:43:31.429Z,16.62
2023-01-08T00:44:35.349Z,15.94
2023-01-08T00:45:39.402Z,19.27
2023-01-08T00:46:43.431Z,16.87
2023-01-08T00:47:47.546Z,17.13
2023-01-08T00:48:51.568Z,18.40
2023-01-08T00:49:55.700Z,20.00
2023-01-08T01:33:04.937Z,20.19
2023-01-08T01:50:19.801Z,16.47
2023-01-08T01:51:26.662Z,19.00
2023-01-08T01:52:36.122Z,17.27
2023-01-08T01:53:40.166Z,17.81
2023-01-08T01:54:44.229Z,18.80
2023-01-08T01:55:50.369Z,17.56
2023-01-08T01:56:54.526Z,20.56
2023-01-08T01:58:16.081Z,18.93
2023-01-08T01:59:19.122Z,16.19
2023-01-08T02:00:25.848Z,19.07
2023-01-08T02:01:37.610Z,19.80
2023-01-08T02:03:48.042Z,19.53
2023-01-08T02:03:52.036Z,19.73
2023-01-08T02:04:56.074Z,20.12
2023-01-08T02:06:09.199Z,20.20
2023-01-08T02:07:18.911Z,20.20
2023-01-08T02:08:28.464Z,18.94
2023-01-08T02:09:55.871Z,17.75
2023-01-08T02:11:08.277Z,18.67
2023-01-08T02:12:23.648Z,10.33
2023-01-08T02:13:30.832Z,17.93
2023-01-08T02:14:39.836Z,18.94
2023-01-08T02:15:58.614Z,19.07
2023-01-08T02:17:05.621Z,18.53
2023-01-08T02:18:12.641Z,20.44
2023-01-08T02:19:46.918Z,19.47
2023-01-08T02:20:59.706Z,18.56
2023-01-08T02:22:31.851Z,18.13
2023-01-08T02:23:50.467Z,19.60
2023-01-08T02:25:21.067Z,19.00
2023-01-08T02:26:33.979Z,18.80
2023-01-08T02:27:41.128Z,18.06
2023-01-08T02:29:19.580Z,19.69
2023-01-08T02:30:26.212Z,19.07
2023-01-08T02:31:32.243Z,19.13
2023-01-08T02:32:41.714Z,17.93
2023-01-08T02:33:47.307Z,19.73
2023-01-08T02:34:52.753Z,18.87
2023-01-08T02:36:17.556Z,18.94
2023-01-08T02:37:22.025Z,18.06
2023-01-08T02:38:29.016Z,17.75
2023-01-08T02:39:41.496Z,16.00
2023-01-08T02:40:57.126Z,16.93
2023-01-08T02:42:05.636Z,18.33
2023-01-08T02:43:21.307Z,18.67
2023-01-08T02:44:34.210Z,18.19
2023-01-08T02:45:42.453Z,12.06
2023-01-08T02:46:48.492Z,18.94
2023-01-08T02:48:10.047Z,19.44
2023-01-08T02:49:17.148Z,19.60
2023-01-08T02:50:32.107Z,15.40
2023-01-08T02:51:49.600Z,17.75
2023-01-08T03:05:29.368Z,19.19
2023-01-08T03:06:45.710Z,17.33
2023-01-08T03:08:20.924Z,19.87
2023-01-08T03:08:54.965Z,18.47
2023-01-08T03:10:02.044Z,19.37
2023-01-08T03:11:12.048Z,17.75
2023-01-08T03:12:25.657Z,16.94
2023-01-08T03:13:51.691Z,16.67
2023-01-08T03:15:00.361Z,18.87
2023-01-08T03:16:07.419Z,18.31
2023-01-08T03:17:20.642Z,15.31
2023-01-08T03:18:29.666Z,18.56
2023-01-08T03:19:42.689Z,17.50
2023-01-08T03:21:40.976Z,15.00
2023-01-08T03:36:49.301Z,18.27
2023-01-08T03:37:59.108Z,18.80
2023-01-08T03:39:14.673Z,18.12
2023-01-08T03:40:30.459Z,17.94
2023-01-08T03:41:36.576Z,17.06
2023-01-08T03:42:42.054Z,13.69
2023-01-08T03:43:46.279Z,16.37
2023-01-08T03:44:50.258Z,18.25
2023-01-08T03:45:57.259Z,19.25
2023-01-08T03:47:04.320Z,18.44
2023-01-08T04:02:17.380Z,18.47
2023-01-08T04:05:36.262Z,17.67
2023-01-08T04:06:21.673Z,22.47
2023-01-08T05:26:58.562Z,20.44
2023-01-08T05:29:40.393Z,12.00
2023-01-08T05:30:53.861Z,17.93
2023-01-08T05:32:51.738Z,19.75
2023-01-08T05:33:11.554Z,20.50
2023-01-08T05:34:17.151Z,17.87
2023-01-08T05:52:52.107Z,18.56
2023-01-08T05:53:56.202Z,12.56
2023-01-08T05:55:00.279Z,19.67
2023-01-08T05:56:09.575Z,19.87
2023-01-08T05:57:16.604Z,19.94
2023-01-08T05:58:20.601Z,15.80
2023-01-08T05:59:26.157Z,18.12
2023-01-08T06:00:34.075Z,17.44
2023-01-08T06:01:38.170Z,20.40
2023-01-08T06:02:44.773Z,20.81
2023-01-08T06:03:48.882Z,17.19
2023-01-08T06:04:56.377Z,20.12
2023-01-08T06:06:05.758Z,20.12
2023-01-08T06:07:14.387Z,20.12
2023-01-08T06:08:18.687Z,18.13
2023-01-08T06:11:38.471Z,22.62
2023-01-08T06:14:49.813Z,17.37
2023-01-08T06:30:09.074Z,19.69
2023-01-08T06:31:11.572Z,17.53
2023-01-08T06:32:20.066Z,19.31
2023-01-08T06:33:23.729Z,18.20
2023-01-08T06:34:27.762Z,15.93
2023-01-08T06:35:35.404Z,19.81
2023-01-08T06:36:43.681Z,19.00
2023-01-08T06:37:48.709Z,19.20
2023-01-08T06:38:52.740Z,18.75
2023-01-08T06:39:56.659Z,18.50
2023-01-08T06:41:09.002Z,19.93
2023-01-08T06:42:19.102Z,19.20
2023-01-08T06:43:25.866Z,17.69
2023-01-08T06:44:30.680Z,18.67
2023-01-08T06:45:39.225Z,18.87
2023-01-08T06:46:45.324Z,19.31
2023-01-08T06:47:52.629Z,20.75
2023-01-08T06:48:59.541Z,18.06
2023-01-08T06:50:06.803Z,18.80
2023-01-08T06:51:12.018Z,17.50
2023-01-08T06:52:16.111Z,19.37
2023-01-08T06:53:23.965Z,18.12
2023-01-08T06:54:27.955Z,19.00
2023-01-08T06:55:33.649Z,19.19
2023-01-08T06:56:52.628Z,19.33
2023-01-08T06:57:45.123Z,19.25
2023-01-08T06:58:50.812Z,21.00
2023-01-08T06:59:56.513Z,20.07
2023-01-08T07:01:02.236Z,19.37
2023-01-08T07:02:32.836Z,19.69
2023-01-08T07:03:24.618Z,18.53
2023-01-08T07:04:25.552Z,19.93
2023-01-08T07:05:33.390Z,18.20
2023-01-08T07:07:57.767Z,19.47
2023-01-08T07:08:19.466Z,16.62
2023-01-08T08:42:24.255Z,18.47
2023-01-08T08:43:28.298Z,18.60
2023-01-08T08:44:32.361Z,18.80
2023-01-08T08:45:37.478Z,19.87
2023-01-08T08:46:41.540Z,20.27
2023-01-08T08:47:45.581Z,18.25
2023-01-08T08:48:49.575Z,20.00
2023-01-08T08:49:53.737Z,21.06
2023-01-08T08:50:57.799Z,18.67
2023-01-08T08:52:01.947Z,21.69
2023-01-08T08:53:07.032Z,20.81
2023-01-08T08:54:12.206Z,20.00
2023-01-08T08:55:16.752Z,12.13
2023-01-08T08:56:21.006Z,18.62
2023-01-08T08:57:27.378Z,20.69
2023-01-08T08:58:31.557Z,21.44
2023-01-08T08:59:37.751Z,20.47
2023-01-08T09:00:44.146Z,20.40
2023-01-08T09:01:48.571Z,21.37
2023-01-08T09:02:52.886Z,19.13
2023-01-08T09:03:57.583Z,20.44
2023-01-08T09:05:01.701Z,18.62
2023-01-08T09:06:06.126Z,21.50
2023-01-08T09:07:10.296Z,21.62
2023-01-08T09:08:14.391Z,20.73
2023-01-08T09:09:18.566Z,21.44
2023-01-08T12:15:26.537Z,20.53
2023-01-08T12:17:10.086Z,27.00
2023-01-08T12:18:34.819Z,17.93
2023-01-08T12:21:16.245Z,17.31
2023-01-08T12:22:34.577Z,22.69
2023-01-08T12:23:56.299Z,18.69
2023-01-08T12:25:08.574Z,17.73
2023-01-08T12:26:21.891Z,17.62
2023-01-08T12:27:57.763Z,17.93
2023-01-08T12:29:13.231Z,16.81
2023-01-08T12:30:35.322Z,17.81
2023-01-08T12:32:06.492Z,17.50
2023-01-08T12:33:34.342Z,20.12
2023-01-08T12:34:53.350Z,18.06
2023-01-08T12:36:00.436Z,20.06
2023-01-08T12:37:07.554Z,18.00
2023-01-08T12:38:32.652Z,17.00
2023-01-08T12:39:39.633Z,20.00
2023-01-08T12:40:58.624Z,17.44
2023-01-08T12:42:08.373Z,16.50
2023-01-08T12:43:21.010Z,17.31
2023-01-08T12:44:28.188Z,17.87
2023-01-08T12:45:35.414Z,15.56
2023-01-08T12:46:42.468Z,18.62
2023-01-08T12:47:52.340Z,16.06
2023-01-08T12:48:58.178Z,17.67
2023-01-08T12:50:16.993Z,18.56
2023-01-08T12:51:48.178Z,17.93
2023-01-08T12:53:04.550Z,20.06
2023-01-08T12:54:41.977Z,21.37
2023-01-08T12:55:51.679Z,18.31
2023-01-08T12:57:01.607Z,19.62
2023-01-08T12:58:11.698Z,17.25
2023-01-08T12:59:35.401Z,16.69
2023-01-08T13:01:16.985Z,19.00
2023-01-08T13:02:51.480Z,20.67
2023-01-08T13:03:57.963Z,18.93
2023-01-08T13:05:20.137Z,19.25
2023-01-08T13:06:25.968Z,22.47
2023-01-08T13:07:35.562Z,19.81
2023-01-08T13:08:45.150Z,20.06
2023-01-08T13:09:56.982Z,18.75
2023-01-08T13:11:02.110Z,18.94
2023-01-08T13:12:06.403Z,18.69
2023-01-08T13:13:31.782Z,16.19
2023-01-08T13:14:47.188Z,19.87
2023-01-08T13:15:51.375Z,19.62
2023-01-08T13:17:04.737Z,19.50
2023-01-08T13:18:21.132Z,13.31
2023-01-08T13:19:37.077Z,17.81
2023-01-08T13:20:41.316Z,17.19
2023-01-08T13:21:48.399Z,19.27
2023-01-08T13:22:55.139Z,19.87
2023-01-08T13:24:05.106Z,19.19
2023-01-08T13:25:21.348Z,19.69
2023-01-08T13:26:31.159Z,19.56
2023-01-08T13:27:35.351Z,18.81
2023-01-08T13:28:44.816Z,19.69
2023-01-08T13:29:51.413Z,17.44
2023-01-08T13:33:25.761Z,28.40
2023-01-08T13:34:41.190Z,18.20
2023-01-08T13:35:45.243Z,19.81
2023-01-08T13:36:58.890Z,18.06
2023-01-08T13:39:40.384Z,17.27
2023-01-08T13:40:50.144Z,19.47
2023-01-08T13:42:14.150Z,17.37
2023-01-08T13:43:38.885Z,18.12
2023-01-08T13:44:51.580Z,20.81
2023-01-08T13:46:01.485Z,20.75
2023-01-08T13:47:29.738Z,16.62
2023-01-08T13:48:39.575Z,24.12
2023-01-08T13:49:46.945Z,21.69
2023-01-08T13:50:51.988Z,18.62
2023-01-08T13:51:56.448Z,18.37
2023-01-08T13:53:08.468Z,22.69
2023-01-08T13:54:21.109Z,18.37
2023-01-08T13:55:31.443Z,18.33
2023-01-08T13:56:35.717Z,19.60
2023-01-08T13:57:42.776Z,18.94
2023-01-08T13:58:49.784Z,20.67
2023-01-08T13:59:59.320Z,20.88
2023-01-08T14:01:05.660Z,18.44
2023-01-08T14:02:27.955Z,18.06
2023-01-08T14:03:37.659Z,15.06
2023-01-08T18:03:11.130Z,31.13
2023-01-08T18:04:16.315Z,34.47
2023-01-08T18:05:29.238Z,32.87
2023-01-08T18:06:33.394Z,27.60
2023-01-08T18:07:37.714Z,36.33
2023-01-08T18:08:41.855Z,38.27
2023-01-08T18:09:50.696Z,32.80
2023-01-08T18:10:55.645Z,31.53
2023-01-08T18:12:02.949Z,31.07
2023-01-08T18:13:06.025Z,33.13
2023-01-08T18:14:14.642Z,30.93
2023-01-08T18:15:18.944Z,30.33
2023-01-08T18:16:24.838Z,31.93
2023-01-08T18:17:31.153Z,29.73
2023-01-08T18:18:42.243Z,30.87
2023-01-08T18:19:46.497Z,34.00
2023-01-08T18:20:54.172Z,36.60
2023-01-08T18:21:59.935Z,37.67
2023-01-08T18:23:07.946Z,41.93
2023-01-08T18:24:12.184Z,34.40
2023-01-08T18:25:16.521Z,32.81
2023-01-08T18:26:22.558Z,33.93
2023-01-08T18:27:26.772Z,34.80
2023-01-08T18:28:30.956Z,31.87
2023-01-08T18:29:38.473Z,36.33
2023-01-08T18:30:42.837Z,37.80
2023-01-08T18:31:52.012Z,34.67
2023-01-08T18:32:54.525Z,35.13
2023-01-08T18:34:02.325Z,40.13
2023-01-08T18:35:12.681Z,39.87
2023-01-08T18:36:17.776Z,42.40
2023-01-08T18:37:23.663Z,36.60
2023-01-08T18:38:29.491Z,36.40
2023-01-08T18:39:36.719Z,36.40
2023-01-08T18:40:54.302Z,35.93
2023-01-08T18:42:04.535Z,36.20
2023-01-08T18:43:10.904Z,36.06
2023-01-08T18:44:14.921Z,34.80
2023-01-08T18:45:20.798Z,41.00
2023-01-08T18:46:32.687Z,38.60
2023-01-08T18:47:55.140Z,31.00
2023-01-08T18:49:01.322Z,31.53
2023-01-08T18:50:06.207Z,33.93
2023-01-08T18:51:31.650Z,33.00
2023-01-08T18:52:38.953Z,31.53
2023-01-08T18:53:46.828Z,32.00
2023-01-08T18:54:52.555Z,31.93
2023-01-08T18:56:03.728Z,31.27
2023-01-08T18:57:08.500Z,30.67
2023-01-08T18:58:14.134Z,31.06
2023-01-08T18:59:20.500Z,32.56
2023-01-08T19:00:26.396Z,29.07
2023-01-08T19:01:31.168Z,33.53
2023-01-08T19:02:38.385Z,31.75
2023-01-08T19:03:45.768Z,32.60
2023-01-08T19:04:53.654Z,31.27
2023-01-08T19:05:59.577Z,30.20
2023-01-08T19:07:06.612Z,31.00
2023-01-08T19:08:12.458Z,32.67
2023-01-08T19:09:18.551Z,28.93
2023-01-08T19:10:22.691Z,30.13
2023-01-08T19:11:30.091Z,31.67
2023-01-08T19:12:37.388Z,26.53
2023-01-08T19:13:42.079Z,29.94
2023-01-08T19:14:47.168Z,28.00
2023-01-08T19:15:51.340Z,30.53
2023-01-08T19:16:55.531Z,30.60
2023-01-08T19:17:59.673Z,28.87
2023-01-08T19:19:04.893Z,31.53
2023-01-08T19:20:11.922Z,29.00
2023-01-08T19:21:16.584Z,29.73
2023-01-08T19:22:21.057Z,28.40
2023-01-08T19:23:35.755Z,29.47
2023-01-08T19:24:40.246Z,27.80
2023-01-08T19:25:44.451Z,26.40
2023-01-08T19:26:48.639Z,30.80
2023-01-08T19:27:52.995Z,29.93
2023-01-08T19:28:57.241Z,29.07
2023-01-08T19:30:01.386Z,31.47
2023-01-08T19:31:05.655Z,32.27
2023-01-08T19:32:11.554Z,30.67
2023-01-08T19:33:15.735Z,30.33
2023-01-08T19:34:19.892Z,30.80
2023-01-08T19:35:25.533Z,31.87
2023-01-08T19:36:29.936Z,31.80
2023-01-08T19:37:35.616Z,29.27
2023-01-08T19:38:42.317Z,29.81
2023-01-08T19:39:46.692Z,30.80
2023-01-08T19:40:51.115Z,31.27
2023-01-08T19:41:55.440Z,32.20
2023-01-08T19:43:02.379Z,30.13
2023-01-08T19:44:07.190Z,29.73
2023-01-08T19:45:13.507Z,27.93
2023-01-08T19:46:17.821Z,28.25
2023-01-08T19:47:21.856Z,30.13
2023-01-08T19:48:25.854Z,20.33
2023-01-08T19:49:29.912Z,22.13
2023-01-08T19:50:34.013Z,25.07
2023-01-08T19:51:38.085Z,26.47
2023-01-08T19:52:42.257Z,25.37
2023-01-08T19:53:46.316Z,14.19
2023-01-08T19:54:51.949Z,24.93
2023-01-08T19:55:55.972Z,22.87
2023-01-08T19:57:00.058Z,23.80
2023-01-08T19:58:04.913Z,20.73
2023-01-08T19:59:09.865Z,23.40
2023-01-08T20:00:17.965Z,19.00
2023-01-08T20:01:24.928Z,19.81
2023-01-08T20:02:42.696Z,22.13
2023-01-08T20:03:45.617Z,20.69
2023-01-08T20:04:51.312Z,21.40
2023-01-08T20:05:55.363Z,19.56
2023-01-08T20:06:59.807Z,18.20
2023-01-08T20:08:03.967Z,20.62
2023-01-08T20:09:08.067Z,18.67
2023-01-08T20:10:13.654Z,19.93
2023-01-08T20:11:18.459Z,17.80
2023-01-08T20:12:22.752Z,19.60
2023-01-08T20:13:31.247Z,17.62
2023-01-08T20:14:35.410Z,18.47
2023-01-08T20:15:39.410Z,17.33
2023-01-08T20:16:43.567Z,19.00
2023-01-08T20:17:47.656Z,19.50
2023-01-08T20:18:53.192Z,16.73
2023-01-08T20:19:57.160Z,19.87
2023-01-08T20:21:09.750Z,16.94
2023-01-08T20:22:13.915Z,18.25
2023-01-08T20:23:18.194Z,18.69
2023-01-08T20:24:22.388Z,15.06
2023-01-08T20:25:26.648Z,15.50
2023-01-08T20:26:32.114Z,15.88
2023-01-08T20:27:37.013Z,17.73
2023-01-08T20:28:43.607Z,18.06
2023-01-08T20:29:48.066Z,19.56
2023-01-08T20:30:52.489Z,19.33
2023-01-08T20:31:56.844Z,20.94
2023-01-08T20:33:01.192Z,23.87
2023-01-08T20:34:08.066Z,17.80
2023-01-08T20:35:12.292Z,19.07
2023-01-08T20:36:20.438Z,17.60
2023-01-08T20:37:24.732Z,17.31
2023-01-08T20:38:29.005Z,17.73
2023-01-08T20:39:33.491Z,15.44
2023-01-08T20:40:38.425Z,18.07
2023-01-08T20:41:50.012Z,17.12
2023-01-08T20:42:49.153Z,12.07
2023-01-08T20:45:03.327Z,17.94
2023-01-08T20:46:08.795Z,18.00
2023-01-08T20:47:12.869Z,17.87
2023-01-08T20:48:17.076Z,18.25
2023-01-08T20:49:21.161Z,12.69
2023-01-08T20:50:25.341Z,17.06
2023-01-08T20:51:30.258Z,17.07
2023-01-08T20:52:34.390Z,18.00
2023-01-08T20:53:39.156Z,19.20
2023-01-08T20:54:43.118Z,16.44
2023-01-08T20:55:47.158Z,18.56
2023-01-08T20:56:51.407Z,15.31
2023-01-08T20:57:55.387Z,17.07
2023-01-08T20:59:00.912Z,18.19
2023-01-08T21:00:05.378Z,21.12
2023-01-08T21:01:15.855Z,17.37
2023-01-08T21:02:20.076Z,18.80
2023-01-08T21:03:24.077Z,18.25
2023-01-08T21:04:28.263Z,17.80
2023-01-08T21:05:33.877Z,17.60
2023-01-08T21:06:38.272Z,9.67
2023-01-08T21:07:42.273Z,17.94
2023-01-08T21:08:48.416Z,17.27
2023-01-08T21:09:52.692Z,17.80
2023-01-08T21:11:05.573Z,18.19
2023-01-08T21:12:09.606Z,18.67
2023-01-08T21:13:14.943Z,26.00
2023-01-08T21:14:19.048Z,19.80
2023-01-08T21:15:23.242Z,16.56
2023-01-08T21:16:29.174Z,17.40
2023-01-08T21:17:33.512Z,14.38
2023-01-08T21:18:37.733Z,17.87
2023-01-08T21:19:41.807Z,13.81
2023-01-08T21:20:46.013Z,18.06
2023-01-08T21:21:50.185Z,18.75
2023-01-08T21:22:54.225Z,17.69
2023-01-08T21:23:58.749Z,17.53
2023-01-08T21:25:02.900Z,17.94
2023-01-08T21:26:09.524Z,18.12
2023-01-08T21:27:13.533Z,18.81
2023-01-08T21:28:17.557Z,19.56
2023-01-08T21:29:21.664Z,18.62
2023-01-08T21:30:25.613Z,20.13
2023-01-08T21:31:31.972Z,19.56
2023-01-08T21:32:36.589Z,17.50
2023-01-08T21:33:41.289Z,20.25
2023-01-08T21:34:48.367Z,20.81
2023-01-08T21:35:52.518Z,17.73
2023-01-08T21:36:56.963Z,15.69
2023-01-08T21:38:01.054Z,19.40
2023-01-08T21:39:05.315Z,17.93
2023-01-08T21:40:14.229Z,19.94
2023-01-08T21:41:23.825Z,22.87
2023-01-08T21:42:27.919Z,20.25
2023-01-08T21:43:35.903Z,21.06
2023-01-08T21:44:41.602Z,18.60
2023-01-08T21:45:51.367Z,18.37
2023-01-08T21:46:53.288Z,17.87
2023-01-08T21:48:01.550Z,20.12
2023-01-08T21:49:05.663Z,18.81
2023-01-08T21:50:12.811Z,17.62
2023-01-08T21:51:19.034Z,18.69
2023-01-08T21:52:24.870Z,17.37
2023-01-08T21:53:28.895Z,16.56
2023-01-08T21:54:33.093Z,18.56
2023-01-08T21:55:39.346Z,13.31
2023-01-08T21:56:43.483Z,18.44
2023-01-08T21:57:48.020Z,18.50
2023-01-08T21:58:52.360Z,20.50
2023-01-08T21:59:57.193Z,18.56
2023-01-08T22:01:01.466Z,17.75
2023-01-08T22:02:06.543Z,20.13
2023-01-08T22:03:10.628Z,18.20
2023-01-08T22:04:17.857Z,18.44
2023-01-08T22:05:23.818Z,19.31
2023-01-08T22:06:28.016Z,16.13
2023-01-08T22:07:32.690Z,20.69
2023-01-08T22:08:36.779Z,19.25
2023-01-08T22:09:40.997Z,19.07
2023-01-08T22:10:45.247Z,19.87
2023-01-08T22:11:49.312Z,19.69
2023-01-08T22:12:54.092Z,19.12
2023-01-08T22:13:58.928Z,16.81
2023-01-08T22:15:03.093Z,18.94
2023-01-08T22:16:10.895Z,12.69
2023-01-08T22:17:15.150Z,16.53
2023-01-08T22:18:19.267Z,19.06
2023-01-08T22:19:23.330Z,18.80
2023-01-08T22:20:27.529Z,20.75
2023-01-08T22:21:31.743Z,18.67
2023-01-08T22:22:36.205Z,20.00
2023-01-08T22:23:40.588Z,21.31
2023-01-08T22:24:46.227Z,20.50
2023-01-08T22:25:50.374Z,20.27
2023-01-08T22:26:54.495Z,21.50
2023-01-08T22:27:58.710Z,17.80
2023-01-08T22:29:04.559Z,15.87
2023-01-08T22:30:09.949Z,20.69
2023-01-08T22:31:17.174Z,19.44
2023-01-08T22:32:21.561Z,16.27
2023-01-08T22:33:25.784Z,18.00
2023-01-08T22:34:36.106Z,19.94
2023-01-08T22:35:40.313Z,18.47
2023-01-08T22:36:45.440Z,19.47
2023-01-08T22:37:53.457Z,20.25
2023-01-08T22:38:59.114Z,19.75
2023-01-08T22:40:04.917Z,18.07
2023-01-08T22:41:20.828Z,19.31
2023-01-08T22:42:28.132Z,19.37
2023-01-08T22:43:32.311Z,18.81
2023-01-08T22:44:36.520Z,20.25
2023-01-08T22:45:42.303Z,17.94
2023-01-08T22:46:46.428Z,19.07
2023-01-08T22:47:50.669Z,16.44
2023-01-08T22:48:54.983Z,18.12
2023-01-08T22:49:59.056Z,20.31
2023-01-08T22:51:05.688Z,19.87
2023-01-08T22:52:09.662Z,19.12
2023-01-08T22:53:13.742Z,20.20
2023-01-08T22:54:17.941Z,19.33
2023-01-08T22:55:22.142Z,21.00
2023-01-08T22:56:30.631Z,18.94
2023-01-08T22:57:43.068Z,19.50
2023-01-08T22:59:13.471Z,18.62
2023-01-08T23:00:18.651Z,18.80
2023-01-08T23:01:27.371Z,19.53
2023-01-08T23:02:31.841Z,18.37
2023-01-08T23:03:35.968Z,21.87
2023-01-08T23:04:40.213Z,20.73
2023-01-08T23:05:44.452Z,18.93
2023-01-08T23:06:49.078Z,18.94
2023-01-08T23:07:53.264Z,19.12
2023-01-08T23:08:59.348Z,19.87
2023-01-08T23:10:03.431Z,20.07
2023-01-08T23:11:08.821Z,16.93
2023-01-08T23:12:14.042Z,20.06
2023-01-08T23:13:18.087Z,18.80
2023-01-08T23:14:22.201Z,18.12
2023-01-08T23:15:26.617Z,20.56
2023-01-08T23:16:31.592Z,15.13
2023-01-08T23:17:44.575Z,20.19
2023-01-08T23:18:42.521Z,19.31
2023-01-08T23:19:46.763Z,18.44
2023-01-08T23:20:51.228Z,20.12
2023-01-08T23:21:55.361Z,21.25
2023-01-08T23:22:59.524Z,18.25
2023-01-08T23:24:03.653Z,19.31
2023-01-08T23:25:08.259Z,18.19
2023-01-08T23:26:18.357Z,18.80
2023-01-08T23:27:22.321Z,18.19
2023-01-08T23:28:26.388Z,17.12
2023-01-08T23:29:30.431Z,19.87
2023-01-08T23:30:34.752Z,20.27
2023-01-08T23:31:40.982Z,18.56
2023-01-08T23:32:53.619Z,20.56
2023-01-08T23:33:58.066Z,21.31
2023-01-08T23:35:05.569Z,18.19
2023-01-08T23:36:10.510Z,18.40
2023-01-08T23:37:16.521Z,20.12
2023-01-08T23:38:29.153Z,18.87
2023-01-08T23:39:30.218Z,17.07
2023-01-08T23:40:40.987Z,19.67
2023-01-08T23:41:56.761Z,18.62
2023-01-08T23:43:01.091Z,15.94
2023-01-08T23:44:11.092Z,18.87
2023-01-08T23:45:16.778Z,18.12
2023-01-08T23:46:29.924Z,20.81
2023-01-08T23:47:34.156Z,11.33
2023-01-08T23:48:39.723Z,18.44
2023-01-08T23:49:51.382Z,18.40
2023-01-08T23:51:01.985Z,18.94
2023-01-08T23:52:06.245Z,21.87
2023-01-08T23:53:16.644Z,15.31
2023-01-08T23:54:51.409Z,15.73
2023-01-08T23:55:56.674Z,17.81
2023-01-08T23:57:02.700Z,16.56
2023-01-08T23:58:06.965Z,2.20
2023-01-08T23:59:12.247Z,19.19
